createdAt,value
2019-03-20T00:01:46.063Z,7.40
2019-03-20T00:04:13.722Z,8.37
2019-03-20T00:06:41.474Z,10.47
2019-03-20T00:09:09.074Z,11.23
2019-03-20T00:11:36.656Z,8.27
2019-03-20T00:14:04.053Z,11.37
2019-03-20T00:16:31.641Z,11.50
2019-03-20T00:18:59.375Z,13.27
2019-03-20T00:21:26.820Z,11.03
2019-03-20T00:23:54.374Z,7.30
2019-03-20T00:26:22.939Z,8.43
2019-03-20T00:28:50.546Z,7.70
2019-03-20T00:31:18.158Z,10.07
2019-03-20T00:33:45.666Z,5.30
2019-03-20T00:36:13.362Z,9.77
2019-03-20T00:38:41.026Z,6.40
2019-03-20T00:41:08.418Z,8.27
2019-03-20T00:43:35.787Z,9.65
2019-03-20T00:46:03.254Z,7.43
2019-03-20T00:48:30.865Z,7.80
2019-03-20T00:50:58.361Z,10.70
2019-03-20T00:53:26.014Z,10.00
2019-03-20T00:55:53.678Z,8.20
2019-03-20T00:58:21.187Z,7.57
2019-03-20T01:00:48.706Z,12.50
2019-03-20T01:03:17.362Z,13.83
2019-03-20T01:05:44.674Z,7.03
2019-03-20T01:08:12.277Z,15.80
2019-03-20T01:10:42.765Z,8.77
2019-03-20T01:13:10.174Z,17.23
2019-03-20T01:15:37.479Z,11.77
2019-03-20T01:18:05.020Z,10.23
2019-03-20T01:20:32.425Z,14.60
2019-03-20T01:22:59.807Z,12.17
2019-03-20T01:25:27.412Z,10.93
2019-03-20T01:27:54.902Z,11.30
2019-03-20T01:30:37.685Z,12.23
2019-03-20T01:33:07.069Z,13.57
2019-03-20T01:35:35.013Z,17.47
2019-03-20T01:38:02.575Z,10.10
2019-03-20T01:40:30.399Z,13.60
2019-03-20T01:42:58.201Z,15.33
2019-03-20T01:45:25.626Z,11.60
2019-03-20T01:47:53.151Z,20.63
2019-03-20T01:50:20.670Z,14.67
2019-03-20T01:52:48.173Z,17.23
2019-03-20T01:55:15.714Z,18.67
2019-03-20T01:57:43.139Z,16.80
2019-03-20T02:00:10.950Z,18.97
2019-03-20T02:02:38.497Z,14.27
2019-03-20T02:05:06.286Z,13.60
2019-03-20T02:07:36.614Z,16.43
2019-03-20T02:10:04.764Z,13.10
2019-03-20T02:12:32.237Z,14.43
2019-03-20T02:14:59.695Z,13.23
2019-03-20T02:17:27.240Z,16.57
2019-03-20T02:19:54.740Z,16.37
2019-03-20T02:22:22.265Z,19.17
2019-03-20T02:24:52.279Z,17.03
2019-03-20T02:27:19.826Z,15.67
2019-03-20T02:29:47.157Z,14.67
2019-03-20T02:32:14.448Z,18.73
2019-03-20T02:34:42.085Z,21.50
2019-03-20T02:37:09.745Z,23.13
2019-03-20T02:39:37.289Z,18.30
2019-03-20T02:42:04.754Z,20.07
2019-03-20T02:44:32.320Z,19.03
2019-03-20T02:46:59.870Z,15.43
2019-03-20T02:49:27.332Z,23.90
2019-03-20T02:51:54.770Z,22.23
2019-03-20T02:54:22.051Z,19.20
2019-03-20T02:56:49.630Z,23.47
2019-03-20T02:59:17.589Z,25.67
2019-03-20T03:13:47.604Z,25.63
2019-03-20T03:16:15.272Z,24.80
2019-03-20T03:18:44.009Z,24.07
2019-03-20T03:21:11.482Z,25.43
2019-03-20T03:23:39.355Z,22.47
2019-03-20T03:26:06.764Z,21.63
2019-03-20T03:28:34.392Z,22.67
2019-03-20T03:31:01.933Z,21.30
2019-03-20T03:33:29.391Z,23.23
2019-03-20T03:35:56.962Z,24.20
2019-03-20T03:38:24.454Z,24.77
2019-03-20T03:40:52.474Z,23.03
2019-03-20T03:43:19.942Z,26.60
2019-03-20T03:45:47.477Z,30.93
2019-03-20T03:48:14.890Z,23.97
2019-03-20T03:50:42.660Z,24.90
2019-03-20T03:53:10.022Z,24.67
2019-03-20T03:55:37.373Z,26.03
2019-03-20T03:58:04.879Z,24.53
2019-03-20T04:00:32.509Z,29.90
2019-03-20T04:03:00.032Z,22.17
2019-03-20T04:05:27.516Z,27.03
2019-03-20T04:07:55.145Z,31.23
2019-03-20T04:10:22.628Z,31.17
2019-03-20T04:12:50.348Z,27.60
2019-03-20T04:15:18.551Z,23.03
2019-03-20T04:17:46.259Z,27.80
2019-03-20T04:20:13.775Z,29.47
2019-03-20T04:22:41.329Z,29.47
2019-03-20T04:25:09.180Z,32.77
2019-03-20T04:27:36.734Z,37.60
2019-03-20T04:30:04.686Z,34.43
2019-03-20T04:32:32.164Z,26.73
2019-03-20T04:34:59.602Z,28.00
2019-03-20T04:37:27.086Z,33.30
2019-03-20T04:39:54.546Z,32.77
2019-03-20T04:42:22.028Z,31.83
2019-03-20T04:44:49.387Z,30.57
2019-03-20T04:47:16.785Z,29.67
2019-03-20T04:49:44.530Z,36.97
2019-03-20T04:52:12.029Z,32.53
2019-03-20T04:54:42.139Z,33.40
2019-03-20T04:57:10.054Z,29.67
2019-03-20T04:59:37.628Z,32.13
2019-03-20T05:02:05.179Z,29.13
2019-03-20T05:04:32.891Z,36.20
2019-03-20T05:07:00.432Z,32.80
2019-03-20T05:09:27.993Z,33.40
2019-03-20T05:11:55.519Z,32.47
2019-03-20T05:14:22.974Z,34.70
2019-03-20T05:16:50.640Z,34.00
2019-03-20T05:19:18.406Z,35.27
2019-03-20T05:21:45.720Z,33.47
2019-03-20T05:24:13.529Z,36.20
2019-03-20T05:26:41.138Z,41.30
2019-03-20T05:29:08.670Z,37.33
2019-03-20T05:31:41.259Z,37.07
2019-03-20T05:34:08.809Z,46.23
2019-03-20T05:36:36.476Z,35.33
2019-03-20T05:39:06.579Z,35.73
2019-03-20T05:41:34.060Z,39.00
2019-03-20T05:44:01.631Z,38.03
2019-03-20T05:46:29.294Z,36.57
2019-03-20T05:48:56.676Z,38.57
2019-03-20T05:51:24.078Z,37.10
2019-03-20T05:53:51.510Z,38.20
2019-03-20T05:56:19.190Z,34.37
2019-03-20T05:58:46.786Z,41.97
2019-03-20T06:01:14.220Z,38.90
2019-03-20T06:03:41.644Z,43.47
2019-03-20T06:06:08.910Z,37.70
2019-03-20T06:08:36.308Z,38.67
2019-03-20T06:11:04.269Z,35.77
2019-03-20T06:13:31.898Z,40.50
2019-03-20T06:15:59.402Z,35.47
2019-03-20T06:18:27.089Z,39.53
2019-03-20T06:20:54.927Z,39.50
2019-03-20T06:23:22.369Z,38.10
2019-03-20T06:25:51.612Z,35.83
2019-03-20T06:28:20.593Z,38.30
2019-03-20T06:30:48.231Z,39.87
2019-03-20T06:33:15.668Z,36.90
2019-03-20T06:35:43.395Z,38.03
2019-03-20T06:38:10.961Z,42.33
2019-03-20T06:40:38.584Z,43.13
2019-03-20T06:43:06.186Z,39.87
2019-03-20T06:45:33.656Z,38.77
2019-03-20T06:48:01.183Z,38.80
2019-03-20T06:50:29.893Z,39.80
2019-03-20T06:52:57.413Z,37.00
2019-03-20T06:55:24.837Z,32.60
2019-03-20T06:57:52.232Z,35.80
2019-03-20T07:00:59.840Z,37.33
2019-03-20T07:03:50.499Z,39.00
2019-03-20T07:06:26.245Z,36.40
2019-03-20T07:09:27.121Z,39.63
2019-03-20T07:11:54.671Z,34.93
2019-03-20T07:14:22.209Z,37.23
2019-03-20T07:16:49.865Z,41.13
2019-03-20T07:19:17.340Z,37.97
2019-03-20T07:21:44.812Z,36.10
2019-03-20T07:24:12.214Z,36.23
2019-03-20T07:26:42.188Z,38.00
2019-03-20T07:29:09.752Z,35.43
2019-03-20T07:31:37.343Z,35.10
2019-03-20T07:34:04.821Z,39.53
2019-03-20T07:36:32.485Z,36.93
2019-03-20T07:38:59.975Z,38.67
2019-03-20T07:41:27.422Z,37.33
2019-03-20T07:43:54.875Z,32.50
2019-03-20T07:46:22.308Z,38.13
2019-03-20T07:48:49.926Z,34.77
2019-03-20T07:51:17.641Z,33.70
2019-03-20T07:53:45.226Z,35.40
2019-03-20T07:56:12.618Z,41.67
2019-03-20T07:58:40.233Z,35.60
2019-03-20T08:01:07.680Z,38.80
2019-03-20T08:03:35.247Z,38.13
2019-03-20T08:06:04.170Z,40.43
2019-03-20T08:08:31.630Z,45.10
2019-03-20T08:10:58.914Z,34.50
2019-03-20T08:13:26.352Z,33.43
2019-03-20T08:15:53.683Z,33.90
2019-03-20T08:18:21.199Z,39.33
2019-03-20T08:20:48.635Z,34.40
2019-03-20T08:23:16.086Z,35.87
2019-03-20T08:25:43.662Z,37.30
2019-03-20T08:28:11.371Z,39.37
2019-03-20T08:30:39.241Z,35.70
2019-03-20T08:33:06.896Z,35.07
2019-03-20T08:35:34.283Z,36.90
2019-03-20T08:38:01.996Z,32.40
2019-03-20T08:40:29.469Z,39.60
2019-03-20T08:42:56.785Z,30.00
2019-03-20T08:45:24.281Z,29.67
2019-03-20T08:47:51.765Z,34.90
2019-03-20T08:50:19.302Z,32.23
2019-03-20T08:52:47.126Z,33.60
2019-03-20T08:55:14.570Z,33.03
2019-03-20T08:57:42.121Z,33.90
2019-03-20T09:00:12.932Z,31.83
2019-03-20T09:02:40.616Z,33.33
2019-03-20T09:05:09.061Z,33.77
2019-03-20T09:07:46.899Z,28.83
2019-03-20T09:10:09.187Z,31.10
2019-03-20T09:12:46.067Z,33.70
2019-03-20T09:15:17.009Z,28.40
2019-03-20T09:17:44.568Z,30.50
2019-03-20T09:20:13.174Z,31.20
2019-03-20T09:22:40.638Z,33.80
2019-03-20T09:25:09.885Z,31.10
2019-03-20T09:27:37.351Z,30.17
2019-03-20T09:30:08.032Z,27.33
2019-03-20T09:32:35.878Z,27.93
2019-03-20T09:35:03.953Z,30.07
2019-03-20T09:37:32.507Z,29.23
2019-03-20T09:40:00.006Z,30.20
2019-03-20T09:42:27.402Z,30.30
2019-03-20T09:44:54.823Z,26.63
2019-03-20T09:47:22.309Z,29.47
2019-03-20T09:49:49.796Z,31.23
2019-03-20T09:52:17.222Z,27.33
2019-03-20T09:54:44.741Z,28.13
2019-03-20T09:57:12.317Z,27.23
2019-03-20T09:59:40.806Z,26.63
2019-03-20T10:02:08.296Z,27.33
2019-03-20T10:04:35.841Z,27.00
2019-03-20T10:07:03.538Z,27.20
2019-03-20T10:09:31.185Z,28.07
2019-03-20T10:11:58.646Z,31.90
2019-03-20T10:14:26.107Z,27.53
2019-03-20T10:16:54.117Z,26.80
2019-03-20T10:19:21.533Z,25.90
2019-03-20T10:21:49.044Z,27.73
2019-03-20T10:24:16.614Z,27.17
2019-03-20T10:26:44.358Z,26.97
2019-03-20T10:29:12.975Z,26.77
2019-03-20T10:31:40.793Z,25.63
2019-03-20T10:34:08.460Z,26.03
2019-03-20T10:36:36.007Z,27.07
2019-03-20T10:39:06.724Z,25.70
2019-03-20T10:41:34.749Z,27.63
2019-03-20T10:44:02.363Z,26.27
2019-03-20T10:46:29.941Z,27.40
2019-03-20T10:48:57.510Z,25.63
2019-03-20T10:51:25.038Z,31.70
2019-03-20T10:53:52.585Z,27.23
2019-03-20T10:56:20.048Z,27.37
2019-03-20T10:58:47.599Z,27.03
2019-03-20T11:01:15.214Z,30.47
2019-03-20T11:03:44.229Z,26.53
2019-03-20T11:06:11.909Z,27.03
2019-03-20T11:08:39.915Z,26.47
2019-03-20T11:11:07.350Z,25.70
2019-03-20T11:13:34.820Z,27.77
2019-03-20T11:16:02.374Z,26.40
2019-03-20T11:18:29.879Z,27.87
2019-03-20T11:20:57.383Z,28.60
2019-03-20T11:23:25.032Z,30.80
2019-03-20T11:25:52.680Z,29.03
2019-03-20T11:28:20.096Z,29.37
2019-03-20T11:30:47.524Z,27.60
2019-03-20T11:33:16.170Z,29.60
2019-03-20T11:35:44.059Z,32.07
2019-03-20T11:38:11.715Z,30.57
2019-03-20T11:40:39.493Z,27.97
2019-03-20T11:43:06.937Z,30.13
2019-03-20T11:45:34.316Z,30.93
2019-03-20T11:48:01.768Z,39.27
2019-03-20T11:50:31.572Z,30.47
2019-03-20T11:52:59.026Z,29.03
2019-03-20T11:55:26.729Z,31.43
2019-03-20T11:57:54.044Z,28.70
2019-03-20T12:00:22.026Z,30.97
2019-03-20T12:02:49.652Z,30.40
2019-03-20T12:05:17.095Z,31.63
2019-03-20T12:07:44.863Z,28.50
2019-03-20T12:10:15.087Z,29.57
2019-03-20T12:12:42.783Z,29.23
2019-03-20T12:15:10.282Z,29.30
2019-03-20T12:17:37.658Z,33.20
2019-03-20T12:20:07.783Z,30.62
2019-03-20T12:22:35.107Z,29.77
2019-03-20T12:25:03.058Z,28.67
2019-03-20T12:27:30.515Z,29.43
2019-03-20T12:29:58.065Z,29.40
2019-03-20T12:32:26.371Z,28.70
2019-03-20T12:34:54.493Z,31.97
2019-03-20T12:37:22.176Z,30.13
2019-03-20T12:39:53.344Z,31.53
2019-03-20T12:42:18.780Z,29.70
2019-03-20T12:44:46.176Z,32.00
2019-03-20T12:47:13.559Z,36.40
2019-03-20T12:49:40.968Z,30.40
2019-03-20T12:52:08.399Z,31.37
2019-03-20T12:54:37.039Z,31.70
2019-03-20T12:57:04.518Z,32.97
2019-03-20T12:59:31.947Z,33.97
2019-03-20T13:01:59.586Z,32.50
2019-03-20T13:04:27.081Z,34.00
2019-03-20T13:06:55.691Z,34.48
2019-03-20T13:09:23.158Z,35.10
2019-03-20T13:11:50.641Z,30.80
2019-03-20T13:14:18.390Z,33.80
2019-03-20T13:16:45.992Z,31.37
2019-03-20T13:19:13.405Z,33.87
2019-03-20T13:21:40.838Z,31.03
2019-03-20T13:24:08.461Z,32.90
2019-03-20T13:26:35.971Z,29.57
2019-03-20T13:29:03.457Z,31.17
2019-03-20T13:31:30.885Z,32.47
2019-03-20T13:33:58.598Z,33.47
2019-03-20T13:36:26.038Z,31.67
2019-03-20T13:38:56.408Z,30.80
2019-03-20T13:41:23.515Z,31.97
2019-03-20T13:43:51.320Z,30.60
2019-03-20T13:46:18.809Z,34.30
2019-03-20T13:48:46.398Z,32.53
2019-03-20T13:51:13.748Z,33.03
2019-03-20T13:53:41.432Z,32.53
2019-03-20T13:56:08.839Z,31.43
2019-03-20T13:58:36.294Z,33.83
2019-03-20T14:01:03.756Z,36.17
2019-03-20T14:03:31.142Z,34.10
2019-03-20T14:05:58.703Z,34.67
2019-03-20T14:08:27.199Z,36.70
2019-03-20T14:10:55.037Z,38.33
2019-03-20T14:13:22.629Z,35.40
2019-03-20T14:15:50.106Z,32.07
2019-03-20T14:18:18.372Z,33.67
2019-03-20T14:20:45.974Z,37.40
2019-03-20T14:23:13.257Z,31.77
2019-03-20T14:25:40.817Z,34.50
2019-03-20T14:28:08.191Z,34.60
2019-03-20T14:30:35.542Z,32.67
2019-03-20T14:33:03.088Z,33.60
2019-03-20T14:35:30.558Z,33.20
2019-03-20T14:37:58.134Z,33.03
2019-03-20T14:40:35.299Z,34.55
2019-03-20T14:42:56.235Z,32.60
2019-03-20T14:45:23.943Z,35.88
2019-03-20T14:47:51.522Z,33.67
2019-03-20T14:50:21.960Z,32.97
2019-03-20T14:52:49.522Z,33.93
2019-03-20T14:55:18.121Z,33.60
2019-03-20T14:57:45.670Z,35.20
2019-03-20T15:00:15.627Z,32.40
2019-03-20T15:02:43.421Z,32.13
2019-03-20T15:05:11.242Z,32.83
2019-03-20T15:07:38.910Z,33.00
2019-03-20T15:10:07.290Z,33.03
2019-03-20T15:12:34.725Z,32.77
2019-03-20T15:15:02.510Z,33.40
2019-03-20T15:17:31.109Z,36.07
2019-03-20T15:19:58.547Z,33.90
2019-03-20T15:22:26.025Z,33.20
2019-03-20T15:24:53.364Z,33.47
2019-03-20T15:27:20.985Z,33.67
2019-03-20T15:29:48.517Z,33.93
2019-03-20T15:32:15.784Z,34.90
2019-03-20T15:35:02.797Z,33.43
2019-03-20T15:37:30.282Z,33.00
2019-03-20T15:39:57.765Z,33.27
2019-03-20T15:42:25.194Z,34.27
2019-03-20T15:44:52.682Z,34.47
2019-03-20T15:47:20.184Z,35.23
2019-03-20T15:49:47.702Z,33.97
2019-03-20T15:52:15.103Z,34.33
2019-03-20T15:54:42.882Z,36.57
2019-03-20T15:57:10.367Z,34.53
2019-03-20T15:59:37.958Z,34.37
2019-03-20T16:02:05.407Z,38.50
2019-03-20T16:04:32.790Z,34.90
2019-03-20T16:07:00.132Z,37.13
2019-03-20T16:09:27.731Z,33.13
2019-03-20T16:11:55.099Z,33.80
2019-03-20T16:14:22.567Z,37.83
2019-03-20T16:16:51.217Z,33.43
2019-03-20T16:19:18.617Z,35.97
2019-03-20T16:21:46.041Z,38.23
2019-03-20T16:24:13.639Z,33.67
2019-03-20T16:26:41.040Z,33.87
2019-03-20T16:29:08.554Z,34.77
2019-03-20T16:31:36.111Z,32.93
2019-03-20T16:34:03.548Z,35.90
2019-03-20T16:36:30.962Z,37.50
2019-03-20T16:38:58.339Z,38.97
2019-03-20T16:41:25.902Z,37.10
2019-03-20T16:43:53.505Z,35.33
2019-03-20T16:46:20.866Z,35.30
2019-03-20T16:48:48.376Z,35.27
2019-03-20T16:51:15.859Z,36.47
2019-03-20T16:53:43.668Z,37.60
2019-03-20T16:56:11.350Z,40.35
2019-03-20T16:58:40.139Z,35.90
2019-03-20T17:01:07.470Z,38.80
2019-03-20T17:03:35.026Z,37.13
2019-03-20T17:06:22.096Z,35.30
2019-03-20T17:08:49.549Z,37.63
2019-03-20T17:11:26.294Z,35.37
2019-03-20T17:13:46.171Z,37.33
2019-03-20T17:16:13.695Z,36.93
2019-03-20T17:18:41.215Z,37.03
2019-03-20T17:21:08.713Z,39.30
2019-03-20T17:23:36.253Z,37.30
2019-03-20T17:26:04.034Z,38.07
2019-03-20T17:28:31.813Z,37.57
2019-03-20T17:30:59.526Z,44.73
2019-03-20T17:33:27.272Z,38.30
2019-03-20T17:35:54.871Z,44.90
2019-03-20T17:38:23.467Z,41.50
2019-03-20T17:40:50.913Z,39.27
2019-03-20T17:43:18.411Z,44.87
2019-03-20T17:45:46.339Z,39.00
2019-03-20T17:48:14.015Z,42.33
2019-03-20T17:50:41.659Z,44.67
2019-03-20T17:53:09.287Z,42.57
2019-03-20T17:55:36.826Z,48.30
2019-03-20T17:58:04.698Z,45.20
2019-03-20T18:00:35.585Z,40.23
2019-03-20T18:03:03.537Z,42.40
2019-03-20T18:05:31.154Z,43.13
2019-03-20T18:07:58.722Z,47.27
2019-03-20T18:10:26.493Z,49.17
2019-03-20T18:12:53.919Z,45.37
2019-03-20T18:15:21.511Z,55.70
2019-03-20T18:17:49.042Z,50.47
2019-03-20T18:20:16.761Z,50.90
2019-03-20T18:22:45.366Z,47.50
2019-03-20T18:25:13.065Z,44.40
2019-03-20T18:27:40.812Z,56.40
2019-03-20T18:30:17.118Z,51.95
2019-03-20T18:32:47.833Z,50.30
2019-03-20T18:35:15.278Z,56.97
2019-03-20T18:37:43.100Z,54.13
2019-03-20T18:40:13.148Z,54.33
2019-03-20T18:42:40.885Z,50.57
2019-03-20T18:45:09.193Z,55.23
2019-03-20T18:47:36.767Z,58.57
2019-03-20T18:50:05.084Z,56.53
2019-03-20T18:52:32.854Z,59.63
2019-03-20T18:55:00.611Z,61.00
2019-03-20T18:57:28.170Z,60.23
2019-03-20T18:59:55.626Z,56.07
2019-03-20T19:02:23.283Z,53.97
2019-03-20T19:04:50.792Z,60.27
2019-03-20T19:07:18.387Z,55.17
2019-03-20T19:09:46.169Z,63.10
2019-03-20T19:12:13.893Z,60.78
2019-03-20T19:14:41.490Z,56.50
2019-03-20T19:17:09.129Z,64.13
2019-03-20T19:19:36.636Z,68.27
2019-03-20T19:22:04.381Z,67.07
2019-03-20T19:24:31.939Z,64.17
2019-03-20T19:26:59.272Z,64.70
2019-03-20T19:29:26.905Z,59.43
2019-03-20T19:31:55.793Z,63.83
2019-03-20T19:34:23.461Z,67.73
2019-03-20T19:36:51.344Z,63.73
2019-03-20T19:39:18.996Z,66.63
2019-03-20T19:41:46.725Z,65.80
2019-03-20T19:44:14.167Z,61.70
2019-03-20T19:46:41.643Z,68.00
2019-03-20T19:49:09.132Z,60.47
2019-03-20T19:51:36.633Z,68.13
2019-03-20T19:54:04.036Z,65.00
2019-03-20T19:56:31.510Z,69.40
2019-03-20T19:58:58.910Z,67.25
2019-03-20T20:01:26.395Z,65.13
2019-03-20T20:03:53.922Z,70.30
2019-03-20T20:06:21.443Z,65.60
2019-03-20T20:08:50.682Z,73.73
2019-03-20T20:11:18.218Z,65.67
2019-03-20T20:13:45.645Z,65.17
2019-03-20T20:16:13.110Z,68.70
2019-03-20T20:18:40.535Z,56.60
2019-03-20T20:21:07.963Z,66.10
2019-03-20T20:23:35.375Z,64.50
2019-03-20T20:26:02.770Z,66.87
2019-03-20T20:28:30.408Z,67.17
2019-03-20T20:30:58.247Z,64.20
2019-03-20T20:33:26.851Z,65.23
2019-03-20T20:35:54.317Z,67.07
2019-03-20T20:38:21.970Z,62.37
2019-03-20T20:40:49.645Z,60.87
2019-03-20T20:43:17.098Z,64.10
2019-03-20T20:45:44.912Z,63.67
2019-03-20T20:48:12.509Z,62.97
2019-03-20T20:50:40.134Z,69.25
2019-03-20T20:53:07.701Z,66.17
2019-03-20T20:55:35.200Z,72.23
2019-03-20T20:58:02.847Z,65.27
2019-03-20T21:00:30.450Z,60.00
2019-03-20T21:03:01.683Z,66.03
2019-03-20T21:05:41.400Z,62.87
2019-03-20T21:08:08.900Z,68.00
2019-03-20T21:10:36.396Z,63.13
2019-03-20T21:13:03.926Z,65.77
2019-03-20T21:15:36.823Z,63.00
2019-03-20T21:18:56.007Z,59.20
2019-03-20T21:21:30.495Z,61.17
2019-03-20T21:24:26.370Z,62.93
2019-03-20T21:27:45.205Z,61.10
2019-03-20T21:30:48.767Z,67.50
2019-03-20T21:33:29.581Z,57.87
2019-03-20T21:39:39.195Z,66.53
2019-03-20T21:42:47.002Z,62.13
2019-03-20T21:45:39.678Z,60.37
2019-03-20T21:48:07.841Z,62.87
2019-03-20T21:51:15.084Z,58.30
2019-03-20T21:54:33.793Z,58.30
2019-03-20T21:57:35.816Z,58.67
2019-03-20T22:00:54.555Z,58.10
2019-03-20T22:03:23.224Z,60.70
2019-03-20T22:06:37.642Z,63.43
2019-03-20T22:09:30.595Z,56.97
2019-03-20T22:12:35.588Z,61.97
2019-03-20T22:15:14.440Z,64.40
2019-03-20T22:18:22.811Z,58.70
2019-03-20T22:21:15.547Z,66.73
2019-03-20T22:24:43.429Z,63.05
2019-03-20T22:27:44.518Z,59.83
2019-03-20T22:30:12.631Z,58.93
2019-03-20T22:33:18.685Z,61.17
2019-03-20T22:35:59.459Z,61.63
2019-03-20T22:39:13.631Z,60.00
2019-03-20T22:41:57.576Z,60.40
2019-03-20T22:44:25.821Z,62.03
2019-03-20T22:47:28.811Z,57.30
2019-03-20T22:50:21.075Z,64.90
2019-03-20T22:53:26.581Z,65.73
2019-03-20T22:56:39.698Z,64.10
2019-03-20T22:59:07.787Z,68.10
2019-03-20T23:02:05.385Z,58.10
2019-03-20T23:04:36.287Z,61.47
2019-03-20T23:07:04.526Z,59.47
2019-03-20T23:09:32.902Z,61.50
2019-03-20T23:12:05.944Z,60.65
2019-03-20T23:14:36.488Z,63.60
2019-03-20T23:17:04.514Z,65.45
2019-03-20T23:19:32.972Z,62.83
2019-03-20T23:22:01.210Z,63.07
2019-03-20T23:24:29.135Z,62.10
2019-03-20T23:26:58.828Z,59.13
2019-03-20T23:29:27.152Z,64.90
2019-03-20T23:31:55.440Z,61.73
2019-03-20T23:34:23.526Z,64.63
2019-03-20T23:36:51.693Z,67.20
2019-03-20T23:39:20.011Z,66.53
2019-03-20T23:41:48.126Z,65.67
2019-03-20T23:44:16.329Z,67.73
2019-03-20T23:46:44.470Z,68.83
2019-03-20T23:49:15.405Z,64.03
2019-03-20T23:51:43.631Z,62.83
2019-03-20T23:54:13.601Z,63.80
2019-03-20T23:56:41.897Z,64.90
2019-03-20T23:59:10.362Z,69.27
